CTV417 WIOO-WARR
Flight info
| Callsign | CTV417 |
|---|---|
| Flight time | 1h 18m |
| Altitude | 37000 |
| Route | MASRI M635 SUMDI |
| Aircraft | A320/M-SDE2E3FGHIRWY/LB1 |
Departure
| Time | 2026-04-29 11:20 |
|---|---|
| Airport | Supadio International Airport (WIOO) |
Arrival
| Time | 2026-04-29 12:38 |
|---|---|
| Airport | Juanda International Airport (WARR) |
| Time | Latitude | Longitude | Altitude | Speed | Heading |
|---|---|---|---|---|---|
| 2026-04-29 10:31 | -0.14611 | 109.40349 | 4 ft | 0 kts | 68° |
| 2026-04-29 11:12 | -0.14618 | 109.40332 | 31 ft | 3 kts | 69° |
| 2026-04-29 11:12 | -0.14624 | 109.40316 | 30 ft | 3 kts | 61° |
| 2026-04-29 11:13 | -0.14635 | 109.40302 | 30 ft | 3 kts | 19° |
| 2026-04-29 11:13 | -0.14655 | 109.40299 | 32 ft | 3 kts | 358° |
| 2026-04-29 11:13 | -0.14673 | 109.40299 | 32 ft | 3 kts | 34° |
| 2026-04-29 11:13 | -0.14679 | 109.40295 | 32 ft | 0 kts | 64° |
| 2026-04-29 11:15 | -0.14684 | 109.40308 | 30 ft | 5 kts | 115° |
| 2026-04-29 11:15 | -0.14731 | 109.40340 | 32 ft | 12 kts | 158° |
| 2026-04-29 11:15 | -0.14803 | 109.40369 | 32 ft | 9 kts | 158° |
| 2026-04-29 11:15 | -0.14844 | 109.40353 | 31 ft | 6 kts | 238° |
| 2026-04-29 11:16 | -0.14871 | 109.40318 | 32 ft | 10 kts | 210° |
| 2026-04-29 11:16 | -0.14972 | 109.40343 | 33 ft | 17 kts | 157° |
| 2026-04-29 11:16 | -0.15095 | 109.40394 | 32 ft | 23 kts | 158° |
| 2026-04-29 11:16 | -0.15252 | 109.40459 | 31 ft | 25 kts | 156° |
| 2026-04-29 11:17 | -0.15418 | 109.40523 | 31 ft | 26 kts | 159° |
| 2026-04-29 11:17 | -0.15593 | 109.40594 | 30 ft | 28 kts | 158° |
| 2026-04-29 11:17 | -0.15774 | 109.40668 | 30 ft | 29 kts | 157° |
| 2026-04-29 11:17 | -0.15963 | 109.40746 | 30 ft | 30 kts | 158° |
| 2026-04-29 11:18 | -0.16155 | 109.40823 | 31 ft | 30 kts | 158° |
| 2026-04-29 11:18 | -0.16261 | 109.40893 | 32 ft | 9 kts | 158° |
| 2026-04-29 11:18 | -0.16272 | 109.40876 | 32 ft | 1 kts | 313° |
| 2026-04-29 11:18 | -0.16262 | 109.40871 | 32 ft | 1 kts | 334° |
| 2026-04-29 11:19 | -0.16207 | 109.40847 | 29 ft | 33 kts | 337° |
| 2026-04-29 11:19 | -0.15758 | 109.40664 | 30 ft | 103 kts | 337° |
| 2026-04-29 11:19 | -0.14913 | 109.40320 | 36 ft | 157 kts | 338° |
| 2026-04-29 11:19 | -0.13896 | 109.39883 | 577 ft | 157 kts | 336° |
| 2026-04-29 11:20 | -0.12908 | 109.39423 | 1190 ft | 156 kts | 331° |
| 2026-04-29 11:20 | -0.12146 | 109.38643 | 1501 ft | 169 kts | 287° |
| 2026-04-29 11:20 | -0.12178 | 109.37422 | 1723 ft | 190 kts | 250° |
| 2026-04-29 11:20 | -0.12711 | 109.36121 | 1919 ft | 215 kts | 248° |
| 2026-04-29 11:21 | -0.13391 | 109.34699 | 2195 ft | 239 kts | 233° |
| 2026-04-29 11:21 | -0.14728 | 109.33615 | 2527 ft | 261 kts | 203° |
| 2026-04-29 11:21 | -0.16435 | 109.32902 | 3172 ft | 270 kts | 205° |
| 2026-04-29 11:21 | -0.18118 | 109.32036 | 3939 ft | 274 kts | 208° |
| 2026-04-29 11:22 | -0.19792 | 109.31096 | 4735 ft | 278 kts | 209° |
| 2026-04-29 11:22 | -0.21483 | 109.30133 | 5483 ft | 282 kts | 209° |
| 2026-04-29 11:22 | -0.23200 | 109.29169 | 6240 ft | 285 kts | 208° |
| 2026-04-29 11:22 | -0.24946 | 109.28209 | 6962 ft | 288 kts | 208° |
| 2026-04-29 11:23 | -0.26754 | 109.27328 | 7668 ft | 291 kts | 197° |
| 2026-04-29 11:23 | -0.28730 | 109.26828 | 8373 ft | 294 kts | 192° |
| 2026-04-29 11:23 | -0.30735 | 109.26359 | 9094 ft | 297 kts | 192° |
| 2026-04-29 11:23 | -0.32760 | 109.25890 | 9790 ft | 301 kts | 192° |
| 2026-04-29 11:24 | -0.34817 | 109.25417 | 10359 ft | 308 kts | 192° |
| 2026-04-29 11:24 | -0.36985 | 109.24921 | 10500 ft | 331 kts | 192° |
| 2026-04-29 11:24 | -0.39304 | 109.24391 | 10686 ft | 350 kts | 192° |
| 2026-04-29 11:24 | -0.41706 | 109.23840 | 11172 ft | 357 kts | 192° |
| 2026-04-29 11:25 | -0.44138 | 109.23282 | 11766 ft | 361 kts | 192° |
| 2026-04-29 11:25 | -0.46601 | 109.22716 | 12366 ft | 364 kts | 192° |
| 2026-04-29 11:25 | -0.49081 | 109.22144 | 12965 ft | 368 kts | 192° |
| 2026-04-29 11:25 | -0.51586 | 109.21564 | 13553 ft | 371 kts | 192° |
| 2026-04-29 11:26 | -0.56657 | 109.20386 | 14578 ft | 378 kts | 192° |
| 2026-04-29 11:26 | -0.59240 | 109.19855 | 15081 ft | 380 kts | 185° |
| 2026-04-29 11:26 | -0.61869 | 109.19970 | 15568 ft | 380 kts | 166° |
| 2026-04-29 11:27 | -0.64395 | 109.20759 | 16064 ft | 381 kts | 159° |
| 2026-04-29 11:27 | -0.66902 | 109.21641 | 16568 ft | 384 kts | 159° |
| 2026-04-29 11:27 | -0.69391 | 109.22527 | 17062 ft | 386 kts | 159° |
| 2026-04-29 11:27 | -0.71962 | 109.23445 | 17561 ft | 389 kts | 159° |
| 2026-04-29 11:28 | -0.74519 | 109.24359 | 18050 ft | 392 kts | 159° |
| 2026-04-29 11:28 | -0.77059 | 109.25265 | 18477 ft | 394 kts | 159° |
| 2026-04-29 11:28 | -0.79649 | 109.26183 | 18908 ft | 396 kts | 159° |
| 2026-04-29 11:28 | -0.82252 | 109.27103 | 19338 ft | 398 kts | 159° |
| 2026-04-29 11:29 | -0.84877 | 109.28029 | 19763 ft | 401 kts | 159° |
| 2026-04-29 11:29 | -0.87517 | 109.28957 | 20189 ft | 403 kts | 159° |
| 2026-04-29 11:29 | -0.90168 | 109.29889 | 20618 ft | 405 kts | 159° |
| 2026-04-29 11:29 | -0.92836 | 109.30830 | 21040 ft | 408 kts | 159° |
| 2026-04-29 11:30 | -0.95517 | 109.31781 | 21458 ft | 410 kts | 159° |
| 2026-04-29 11:30 | -0.97337 | 109.32426 | 21736 ft | 412 kts | 159° |
| 2026-04-29 11:30 | -1.00010 | 109.33373 | 22134 ft | 414 kts | 159° |
| 2026-04-29 11:30 | -1.03656 | 109.34657 | 22661 ft | 417 kts | 159° |
| 2026-04-29 11:31 | -1.05470 | 109.35295 | 22909 ft | 419 kts | 159° |
| 2026-04-29 11:31 | -1.08226 | 109.36267 | 23287 ft | 421 kts | 159° |
| 2026-04-29 11:31 | -1.10993 | 109.37244 | 23606 ft | 423 kts | 159° |
| 2026-04-29 11:31 | -1.13777 | 109.38228 | 23909 ft | 425 kts | 159° |
| 2026-04-29 11:32 | -1.16573 | 109.39219 | 24214 ft | 427 kts | 159° |
| 2026-04-29 11:32 | -1.19380 | 109.40213 | 24512 ft | 429 kts | 159° |
| 2026-04-29 11:32 | -1.22198 | 109.41209 | 24802 ft | 431 kts | 159° |
| 2026-04-29 11:32 | -1.25032 | 109.42212 | 25095 ft | 432 kts | 159° |
| 2026-04-29 11:33 | -1.27873 | 109.43216 | 25380 ft | 434 kts | 159° |
| 2026-04-29 11:33 | -1.30728 | 109.44227 | 25651 ft | 436 kts | 159° |
| 2026-04-29 11:33 | -1.33593 | 109.45241 | 25926 ft | 438 kts | 159° |
| 2026-04-29 11:33 | -1.36472 | 109.46257 | 26187 ft | 440 kts | 159° |
| 2026-04-29 11:34 | -1.39363 | 109.47277 | 26449 ft | 441 kts | 159° |
| 2026-04-29 11:34 | -1.42265 | 109.48302 | 26708 ft | 443 kts | 159° |
| 2026-04-29 11:34 | -1.45176 | 109.49330 | 26971 ft | 445 kts | 159° |
| 2026-04-29 11:34 | -1.48102 | 109.50364 | 27229 ft | 446 kts | 159° |
| 2026-04-29 11:35 | -1.51032 | 109.51401 | 27479 ft | 448 kts | 159° |
| 2026-04-29 11:35 | -1.53975 | 109.52443 | 27736 ft | 449 kts | 159° |
| 2026-04-29 11:35 | -1.56925 | 109.53489 | 27978 ft | 451 kts | 159° |
| 2026-04-29 11:35 | -1.59888 | 109.54538 | 28217 ft | 453 kts | 159° |
| 2026-04-29 11:36 | -1.62864 | 109.55588 | 28444 ft | 454 kts | 159° |
| 2026-04-29 11:36 | -1.65848 | 109.56641 | 28669 ft | 456 kts | 159° |
| 2026-04-29 11:36 | -1.68841 | 109.57699 | 28895 ft | 457 kts | 159° |
| 2026-04-29 11:36 | -1.71845 | 109.58760 | 29108 ft | 459 kts | 159° |
| 2026-04-29 11:37 | -1.74860 | 109.59825 | 29319 ft | 460 kts | 159° |
| 2026-04-29 11:37 | -1.77880 | 109.60891 | 29513 ft | 462 kts | 159° |
| 2026-04-29 11:37 | -1.80917 | 109.61962 | 29714 ft | 463 kts | 159° |
| 2026-04-29 11:37 | -1.83917 | 109.63021 | 29901 ft | 464 kts | 159° |
| 2026-04-29 11:38 | -1.86968 | 109.64103 | 30062 ft | 466 kts | 159° |
| 2026-04-29 11:38 | -1.90025 | 109.65188 | 30215 ft | 467 kts | 159° |
| 2026-04-29 11:38 | -1.93091 | 109.66275 | 30373 ft | 468 kts | 159° |
| 2026-04-29 11:38 | -1.96164 | 109.67359 | 30569 ft | 468 kts | 159° |
| 2026-04-29 11:39 | -1.99229 | 109.68442 | 30796 ft | 467 kts | 159° |
| 2026-04-29 11:39 | -2.02287 | 109.69524 | 31020 ft | 466 kts | 159° |
| 2026-04-29 11:39 | -2.05342 | 109.70605 | 31240 ft | 466 kts | 159° |
| 2026-04-29 11:39 | -2.08395 | 109.71686 | 31467 ft | 465 kts | 159° |
| 2026-04-29 11:40 | -2.11443 | 109.72765 | 31695 ft | 464 kts | 159° |
| 2026-04-29 11:40 | -2.14483 | 109.73843 | 31932 ft | 463 kts | 159° |
| 2026-04-29 11:40 | -2.17518 | 109.74920 | 32162 ft | 463 kts | 159° |
| 2026-04-29 11:40 | -2.20552 | 109.75993 | 32399 ft | 462 kts | 159° |
| 2026-04-29 11:41 | -2.23580 | 109.77062 | 32647 ft | 461 kts | 159° |
| 2026-04-29 11:41 | -2.26602 | 109.78129 | 32879 ft | 460 kts | 159° |
| 2026-04-29 11:41 | -2.29618 | 109.79196 | 33124 ft | 459 kts | 159° |
| 2026-04-29 11:41 | -2.32627 | 109.80262 | 33371 ft | 459 kts | 159° |
| 2026-04-29 11:42 | -2.35635 | 109.81325 | 33612 ft | 458 kts | 159° |
| 2026-04-29 11:42 | -2.38634 | 109.82385 | 33861 ft | 457 kts | 159° |
| 2026-04-29 11:42 | -2.41630 | 109.83445 | 34084 ft | 456 kts | 159° |
| 2026-04-29 11:42 | -2.44619 | 109.84502 | 34294 ft | 455 kts | 159° |
| 2026-04-29 11:43 | -2.47605 | 109.85558 | 34482 ft | 455 kts | 159° |
| 2026-04-29 11:43 | -2.50585 | 109.86616 | 34678 ft | 455 kts | 159° |
| 2026-04-29 11:43 | -2.53563 | 109.87676 | 34867 ft | 454 kts | 159° |
| 2026-04-29 11:43 | -2.56540 | 109.88734 | 35049 ft | 454 kts | 159° |
| 2026-04-29 11:44 | -2.59519 | 109.89788 | 35226 ft | 454 kts | 159° |
| 2026-04-29 11:44 | -2.62495 | 109.90838 | 35395 ft | 454 kts | 159° |
| 2026-04-29 11:44 | -2.65469 | 109.91890 | 35562 ft | 453 kts | 159° |
| 2026-04-29 11:44 | -2.68441 | 109.92944 | 35724 ft | 453 kts | 159° |
| 2026-04-29 11:45 | -2.71411 | 109.93996 | 35888 ft | 453 kts | 159° |
| 2026-04-29 11:45 | -2.74383 | 109.95048 | 36044 ft | 453 kts | 159° |
| 2026-04-29 11:45 | -2.77351 | 109.96099 | 36198 ft | 452 kts | 159° |
| 2026-04-29 11:45 | -2.80319 | 109.97149 | 36354 ft | 452 kts | 159° |
| 2026-04-29 11:46 | -2.83284 | 109.98198 | 36507 ft | 452 kts | 159° |
| 2026-04-29 11:46 | -2.86247 | 109.99249 | 36653 ft | 452 kts | 159° |
| 2026-04-29 11:46 | -2.89205 | 110.00300 | 36818 ft | 451 kts | 159° |
| 2026-04-29 11:46 | -2.92165 | 110.01351 | 36876 ft | 451 kts | 159° |
| 2026-04-29 11:47 | -2.98042 | 110.03429 | 36878 ft | 451 kts | 159° |
| 2026-04-29 11:47 | -3.03959 | 110.05520 | 36876 ft | 451 kts | 159° |
| 2026-04-29 11:48 | -3.09875 | 110.07618 | 36877 ft | 451 kts | 159° |
| 2026-04-29 11:48 | -3.15795 | 110.09717 | 36879 ft | 451 kts | 159° |
| 2026-04-29 11:49 | -3.21712 | 110.11812 | 36880 ft | 451 kts | 159° |
| 2026-04-29 11:49 | -3.27632 | 110.13915 | 36884 ft | 451 kts | 159° |
| 2026-04-29 11:50 | -3.33551 | 110.16018 | 36885 ft | 452 kts | 159° |
| 2026-04-29 11:50 | -3.39473 | 110.18121 | 36884 ft | 452 kts | 159° |
| 2026-04-29 11:51 | -3.45397 | 110.20217 | 36894 ft | 451 kts | 159° |
| 2026-04-29 11:51 | -3.51315 | 110.22314 | 36889 ft | 451 kts | 159° |
| 2026-04-29 11:52 | -3.57239 | 110.24411 | 36897 ft | 451 kts | 159° |
| 2026-04-29 11:52 | -3.63160 | 110.26510 | 36895 ft | 451 kts | 159° |
| 2026-04-29 11:53 | -3.69078 | 110.28607 | 36897 ft | 451 kts | 158° |
| 2026-04-29 11:53 | -3.74988 | 110.30714 | 36894 ft | 451 kts | 158° |
| 2026-04-29 11:54 | -3.80898 | 110.32820 | 36902 ft | 451 kts | 159° |
| 2026-04-29 11:54 | -3.86809 | 110.34918 | 36892 ft | 450 kts | 159° |
| 2026-04-29 11:55 | -3.92695 | 110.37058 | 36898 ft | 449 kts | 153° |
| 2026-04-29 11:55 | -3.97835 | 110.40482 | 36900 ft | 444 kts | 134° |
| 2026-04-29 11:56 | -4.01753 | 110.45227 | 36895 ft | 442 kts | 126° |
| 2026-04-29 11:56 | -4.05517 | 110.50098 | 36888 ft | 442 kts | 127° |
| 2026-04-29 11:57 | -4.09274 | 110.54930 | 36889 ft | 443 kts | 127° |
| 2026-04-29 11:57 | -4.13045 | 110.59809 | 36893 ft | 443 kts | 127° |
| 2026-04-29 11:58 | -4.16804 | 110.64695 | 36895 ft | 443 kts | 127° |
| 2026-04-29 11:58 | -4.20570 | 110.69580 | 36885 ft | 443 kts | 127° |
| 2026-04-29 11:59 | -4.24339 | 110.74462 | 36889 ft | 443 kts | 127° |
| 2026-04-29 11:59 | -4.28106 | 110.79348 | 36896 ft | 443 kts | 127° |
| 2026-04-29 12:00 | -4.31876 | 110.84234 | 36892 ft | 443 kts | 127° |
| 2026-04-29 12:00 | -4.35649 | 110.89119 | 36894 ft | 443 kts | 127° |
| 2026-04-29 12:01 | -4.39417 | 110.94008 | 36893 ft | 443 kts | 127° |
| 2026-04-29 12:01 | -4.43181 | 110.98903 | 36890 ft | 443 kts | 127° |
| 2026-04-29 12:02 | -4.46951 | 111.03798 | 36907 ft | 444 kts | 127° |
| 2026-04-29 12:02 | -4.50722 | 111.08690 | 36902 ft | 444 kts | 127° |
| 2026-04-29 12:03 | -4.54501 | 111.13585 | 36899 ft | 444 kts | 127° |
| 2026-04-29 12:03 | -4.58273 | 111.18477 | 36900 ft | 444 kts | 127° |
| 2026-04-29 12:04 | -4.62397 | 111.23070 | 36897 ft | 445 kts | 140° |
| 2026-04-29 12:04 | -4.67641 | 111.26381 | 36892 ft | 446 kts | 149° |
| 2026-04-29 12:05 | -4.73032 | 111.29474 | 36893 ft | 447 kts | 149° |
| 2026-04-29 12:05 | -4.78426 | 111.32581 | 36891 ft | 447 kts | 149° |
| 2026-04-29 12:06 | -4.83784 | 111.35665 | 36895 ft | 447 kts | 149° |
| 2026-04-29 12:06 | -4.89185 | 111.38767 | 36894 ft | 447 kts | 149° |
| 2026-04-29 12:07 | -4.94584 | 111.41878 | 36896 ft | 448 kts | 149° |
| 2026-04-29 12:07 | -4.99981 | 111.44994 | 36897 ft | 447 kts | 149° |
| 2026-04-29 12:08 | -5.05377 | 111.48102 | 36901 ft | 447 kts | 149° |
| 2026-04-29 12:08 | -5.10776 | 111.51212 | 36898 ft | 447 kts | 149° |
| 2026-04-29 12:09 | -5.16180 | 111.54321 | 36901 ft | 448 kts | 149° |
| 2026-04-29 12:09 | -5.21582 | 111.57427 | 36902 ft | 448 kts | 149° |
| 2026-04-29 12:10 | -5.26985 | 111.60540 | 36894 ft | 448 kts | 149° |
| 2026-04-29 12:10 | -5.32390 | 111.63659 | 36898 ft | 448 kts | 149° |
| 2026-04-29 12:11 | -5.37791 | 111.66790 | 36899 ft | 449 kts | 149° |
| 2026-04-29 12:11 | -5.43201 | 111.69922 | 36902 ft | 449 kts | 149° |
| 2026-04-29 12:12 | -5.48620 | 111.73043 | 36900 ft | 449 kts | 149° |
| 2026-04-29 12:12 | -5.54042 | 111.76159 | 36898 ft | 449 kts | 149° |
| 2026-04-29 12:13 | -5.59460 | 111.79282 | 36276 ft | 449 kts | 149° |
| 2026-04-29 12:13 | -5.62169 | 111.80847 | 35538 ft | 450 kts | 149° |
| 2026-04-29 12:13 | -5.64891 | 111.82417 | 34796 ft | 452 kts | 149° |
| 2026-04-29 12:14 | -5.67626 | 111.83997 | 34061 ft | 454 kts | 148° |
| 2026-04-29 12:14 | -5.70373 | 111.85586 | 33235 ft | 456 kts | 149° |
| 2026-04-29 12:14 | -5.73129 | 111.87179 | 32390 ft | 459 kts | 149° |
| 2026-04-29 12:14 | -5.75899 | 111.88778 | 31544 ft | 461 kts | 149° |
| 2026-04-29 12:15 | -5.78648 | 111.90365 | 30704 ft | 463 kts | 149° |
| 2026-04-29 12:15 | -5.81485 | 111.92001 | 29820 ft | 465 kts | 149° |
| 2026-04-29 12:15 | -5.84258 | 111.93601 | 28845 ft | 467 kts | 149° |
| 2026-04-29 12:15 | -5.87058 | 111.95221 | 28175 ft | 462 kts | 149° |
| 2026-04-29 12:16 | -5.89825 | 111.96820 | 27522 ft | 456 kts | 149° |
| 2026-04-29 12:16 | -5.92562 | 111.98404 | 26884 ft | 452 kts | 149° |
| 2026-04-29 12:16 | -5.95273 | 111.99973 | 26267 ft | 448 kts | 149° |
| 2026-04-29 12:16 | -5.97960 | 112.01528 | 25673 ft | 443 kts | 149° |
| 2026-04-29 12:17 | -6.00620 | 112.03065 | 25088 ft | 439 kts | 149° |
| 2026-04-29 12:17 | -6.03259 | 112.04590 | 24520 ft | 435 kts | 149° |
| 2026-04-29 12:17 | -6.05871 | 112.06099 | 23965 ft | 432 kts | 149° |
| 2026-04-29 12:17 | -6.08461 | 112.07600 | 23417 ft | 428 kts | 149° |
| 2026-04-29 12:18 | -6.11031 | 112.09091 | 22794 ft | 425 kts | 149° |
| 2026-04-29 12:18 | -6.13580 | 112.10566 | 22212 ft | 421 kts | 149° |
| 2026-04-29 12:18 | -6.16106 | 112.12027 | 21658 ft | 417 kts | 149° |
| 2026-04-29 12:18 | -6.18614 | 112.13474 | 21120 ft | 414 kts | 149° |
| 2026-04-29 12:19 | -6.20297 | 112.14444 | 20773 ft | 411 kts | 149° |
| 2026-04-29 12:19 | -6.23568 | 112.16334 | 20108 ft | 407 kts | 148° |
| 2026-04-29 12:19 | -6.26012 | 112.17750 | 19633 ft | 404 kts | 148° |
| 2026-04-29 12:19 | -6.27651 | 112.18699 | 19312 ft | 402 kts | 148° |
| 2026-04-29 12:20 | -6.30066 | 112.20097 | 18835 ft | 399 kts | 148° |
| 2026-04-29 12:20 | -6.32432 | 112.21470 | 18380 ft | 397 kts | 148° |
| 2026-04-29 12:20 | -6.34814 | 112.22852 | 17887 ft | 394 kts | 148° |
| 2026-04-29 12:20 | -6.37176 | 112.24220 | 17376 ft | 391 kts | 148° |
| 2026-04-29 12:21 | -6.39521 | 112.25578 | 16877 ft | 388 kts | 148° |
| 2026-04-29 12:21 | -6.41854 | 112.26929 | 16384 ft | 385 kts | 148° |
| 2026-04-29 12:21 | -6.44167 | 112.28268 | 15906 ft | 382 kts | 148° |
| 2026-04-29 12:21 | -6.46462 | 112.29599 | 15415 ft | 379 kts | 148° |
| 2026-04-29 12:22 | -6.48741 | 112.30922 | 14955 ft | 377 kts | 148° |
| 2026-04-29 12:22 | -6.51004 | 112.32235 | 14486 ft | 374 kts | 148° |
| 2026-04-29 12:22 | -6.53352 | 112.33341 | 14028 ft | 373 kts | 159° |
| 2026-04-29 12:22 | -6.55784 | 112.34224 | 13551 ft | 371 kts | 158° |
| 2026-04-29 12:23 | -6.58197 | 112.35113 | 13043 ft | 368 kts | 158° |
| 2026-04-29 12:23 | -6.60594 | 112.36005 | 12534 ft | 365 kts | 158° |
| 2026-04-29 12:23 | -6.62964 | 112.36888 | 12029 ft | 362 kts | 158° |
| 2026-04-29 12:23 | -6.65320 | 112.37764 | 11535 ft | 359 kts | 158° |
| 2026-04-29 12:24 | -6.67655 | 112.38630 | 11034 ft | 357 kts | 159° |
| 2026-04-29 12:24 | -6.70036 | 112.39312 | 10538 ft | 355 kts | 165° |
| 2026-04-29 12:24 | -6.72430 | 112.39881 | 10042 ft | 353 kts | 166° |
| 2026-04-29 12:24 | -6.74790 | 112.40417 | 9846 ft | 341 kts | 166° |
| 2026-04-29 12:25 | -6.77055 | 112.40923 | 9722 ft | 327 kts | 166° |
| 2026-04-29 12:25 | -6.79235 | 112.41408 | 9594 ft | 315 kts | 166° |
| 2026-04-29 12:25 | -6.83357 | 112.42331 | 9285 ft | 294 kts | 166° |
| 2026-04-29 12:26 | -6.85343 | 112.42779 | 8961 ft | 291 kts | 166° |
| 2026-04-29 12:26 | -6.87310 | 112.43225 | 8600 ft | 289 kts | 166° |
| 2026-04-29 12:26 | -6.89267 | 112.43673 | 8229 ft | 287 kts | 166° |
| 2026-04-29 12:26 | -6.91212 | 112.44119 | 7857 ft | 286 kts | 165° |
| 2026-04-29 12:27 | -6.93145 | 112.44562 | 7483 ft | 284 kts | 165° |
| 2026-04-29 12:27 | -6.95067 | 112.45000 | 7127 ft | 282 kts | 166° |
| 2026-04-29 12:27 | -6.96976 | 112.45434 | 6763 ft | 280 kts | 166° |
| 2026-04-29 12:27 | -6.98873 | 112.45864 | 6405 ft | 279 kts | 165° |
| 2026-04-29 12:28 | -7.00761 | 112.46295 | 6152 ft | 279 kts | 165° |
| 2026-04-29 12:28 | -7.02649 | 112.46727 | 5878 ft | 277 kts | 165° |
| 2026-04-29 12:28 | -7.04529 | 112.47157 | 5613 ft | 277 kts | 165° |
| 2026-04-29 12:28 | -7.06402 | 112.47586 | 5344 ft | 275 kts | 165° |
| 2026-04-29 12:29 | -7.08263 | 112.48010 | 5081 ft | 274 kts | 165° |
| 2026-04-29 12:29 | -7.10117 | 112.48431 | 4821 ft | 272 kts | 165° |
| 2026-04-29 12:29 | -7.11962 | 112.48853 | 4558 ft | 271 kts | 165° |
| 2026-04-29 12:29 | -7.13800 | 112.49272 | 4285 ft | 270 kts | 165° |
| 2026-04-29 12:30 | -7.15602 | 112.49683 | 4020 ft | 269 kts | 165° |
| 2026-04-29 12:30 | -7.17429 | 112.50099 | 3757 ft | 268 kts | 165° |
| 2026-04-29 12:30 | -7.19245 | 112.50513 | 3490 ft | 267 kts | 165° |
| 2026-04-29 12:30 | -7.21055 | 112.50925 | 3235 ft | 266 kts | 165° |
| 2026-04-29 12:31 | -7.22853 | 112.51338 | 3049 ft | 265 kts | 165° |
| 2026-04-29 12:31 | -7.24647 | 112.51749 | 3016 ft | 264 kts | 165° |
| 2026-04-29 12:31 | -7.26443 | 112.52160 | 3019 ft | 265 kts | 165° |
| 2026-04-29 12:31 | -7.28232 | 112.52567 | 3017 ft | 259 kts | 165° |
| 2026-04-29 12:32 | -7.29925 | 112.52951 | 3012 ft | 240 kts | 165° |
| 2026-04-29 12:32 | -7.31508 | 112.53315 | 3019 ft | 230 kts | 162° |
| 2026-04-29 12:32 | -7.32916 | 112.54014 | 3025 ft | 221 kts | 139° |
| 2026-04-29 12:32 | -7.33886 | 112.55130 | 3018 ft | 206 kts | 118° |
| 2026-04-29 12:33 | -7.34379 | 112.56453 | 3024 ft | 201 kts | 99° |
| 2026-04-29 12:33 | -7.34598 | 112.57835 | 3029 ft | 199 kts | 99° |
| 2026-04-29 12:33 | -7.34819 | 112.59209 | 3030 ft | 199 kts | 99° |
| 2026-04-29 12:33 | -7.35041 | 112.60579 | 3026 ft | 198 kts | 99° |
| 2026-04-29 12:34 | -7.35265 | 112.61956 | 2874 ft | 198 kts | 99° |
| 2026-04-29 12:34 | -7.35488 | 112.63324 | 2651 ft | 198 kts | 99° |
| 2026-04-29 12:34 | -7.35709 | 112.64682 | 2434 ft | 194 kts | 99° |
| 2026-04-29 12:34 | -7.35924 | 112.66006 | 2165 ft | 187 kts | 99° |
| 2026-04-29 12:35 | -7.36127 | 112.67252 | 1921 ft | 172 kts | 99° |
| 2026-04-29 12:35 | -7.36312 | 112.68393 | 1714 ft | 159 kts | 99° |
| 2026-04-29 12:35 | -7.36486 | 112.69461 | 1519 ft | 152 kts | 99° |
| 2026-04-29 12:35 | -7.36654 | 112.70497 | 1324 ft | 148 kts | 98° |
| 2026-04-29 12:36 | -7.36820 | 112.71519 | 1147 ft | 149 kts | 98° |
| 2026-04-29 12:36 | -7.36987 | 112.72544 | 951 ft | 148 kts | 99° |
| 2026-04-29 12:36 | -7.37153 | 112.73565 | 778 ft | 147 kts | 100° |
| 2026-04-29 12:36 | -7.37318 | 112.74585 | 597 ft | 147 kts | 100° |
| 2026-04-29 12:37 | -7.37484 | 112.75599 | 400 ft | 147 kts | 99° |
| 2026-04-29 12:37 | -7.37648 | 112.76616 | 195 ft | 148 kts | 101° |
| 2026-04-29 12:37 | -7.37815 | 112.77633 | 34 ft | 145 kts | 99° |
| 2026-04-29 12:37 | -7.37957 | 112.78532 | 9 ft | 110 kts | 100° |
| 2026-04-29 12:38 | -7.38053 | 112.79123 | 11 ft | 61 kts | 99° |
| 2026-04-29 12:38 | -7.38100 | 112.79408 | 9 ft | 33 kts | 99° |
| 2026-04-29 12:38 | -7.38100 | 112.79587 | 9 ft | 24 kts | 83° |
| 2026-04-29 12:38 | -7.38061 | 112.79714 | 10 ft | 17 kts | 69° |
| 2026-04-29 12:39 | -7.38007 | 112.79772 | 9 ft | 11 kts | 15° |
| 2026-04-29 12:39 | -7.37938 | 112.79783 | 10 ft | 9 kts | 8° |
| 2026-04-29 12:39 | -7.37879 | 112.79792 | 9 ft | 8 kts | 8° |
| 2026-04-29 12:39 | -7.37830 | 112.79800 | 9 ft | 7 kts | 10° |
| 2026-04-29 12:40 | -7.37789 | 112.79808 | 9 ft | 5 kts | 10° |
| 2026-04-29 12:40 | -7.37755 | 112.79813 | 9 ft | 5 kts | 2° |
| 2026-04-29 12:40 | -7.37735 | 112.79798 | 9 ft | 4 kts | 300° |
| 2026-04-29 12:40 | -7.37730 | 112.79772 | 9 ft | 3 kts | 279° |
| 2026-04-29 12:41 | -7.37726 | 112.79751 | 9 ft | 4 kts | 279° |
| 2026-04-29 12:41 | -7.37723 | 112.79729 | 9 ft | 3 kts | 279° |
| 2026-04-29 12:41 | -7.37718 | 112.79696 | 10 ft | 5 kts | 279° |
| 2026-04-29 12:41 | -7.37710 | 112.79650 | 9 ft | 8 kts | 279° |
| 2026-04-29 12:42 | -7.37698 | 112.79596 | 9 ft | 6 kts | 305° |
| 2026-04-29 12:42 | -7.37653 | 112.79587 | 9 ft | 7 kts | 359° |
| 2026-04-29 12:42 | -7.37636 | 112.79588 | 9 ft | 3 kts | 6° |
| 2026-04-29 12:42 | -7.37619 | 112.79591 | 9 ft | 2 kts | 12° |
| 2026-04-29 12:43 | -7.37610 | 112.79592 | 10 ft | 1 kts | 10° |
| 2026-04-29 12:43 | -7.37607 | 112.79593 | 10 ft | 0 kts | 10° |